
Distance (Route):
Temperature : -12.7°C
Humidity : 10.4%
Pressure : 0hPa| Receiver | Frames | First received | Last received |
|---|---|---|---|
| OM5KV | 186 | 2026-09-05 00:20:10 | 2026-09-05 00:46:52 |
| LZ4TU-5 | 83 | 2026-09-04 23:31:31 | 2026-09-05 00:54:41 |
| OE3JTB-15 | 26 | 2026-09-05 00:11:30 | 2026-09-05 00:31:33 |
| 9A1FER-3 | 26 | 2026-09-05 00:27:00 | 2026-09-05 00:43:30 |
| GYPAP8-17 | 3 | 2026-09-05 00:18:01 | 2026-09-05 00:31:18 |
| Receiver | Date | Latitude | Longitude | Direction | Speed | Altitude | Climb | Temperature | Humidity | Pressure | Voltage | Killtimer | Uptime | BKT | XDATA |
|---|---|---|---|---|---|---|---|---|---|---|---|---|---|---|---|
| LZ4TU-5 | 2026-09-05 00:54:41 | 44.56829 | 20.78934 | 126° | 33km/h | 6743m | -19.1m/s | -12.7°C | 10.4% | 0hPa | 5.3V | 00:00:00 | 00:00:00 | 00:00:00 | |
| LZ4TU-5 | 2026-09-05 00:54:36 | 44.56852 | 20.78882 | 121° | 33km/h | 6823m | -20.1m/s | -13.3°C | 10.0% | 0hPa | 5.3V | 00:00:00 | 00:00:00 | 00:00:00 | |
| LZ4TU-5 | 2026-09-05 00:54:33 | 44.56868 | 20.78843 | 118° | 31km/h | 6903m | -19.6m/s | -13.7°C | 11.9% | 0hPa | 5.3V | 00:00:00 | 00:00:00 | 00:00:00 | |
| LZ4TU-5 | 2026-09-05 00:52:09 | 44.57725 | 20.77076 | 126° | 47km/h | 9862m | -22.6m/s | -35.7°C | 14.4% | 0hPa | 5.3V | 00:00:00 | 00:00:00 | 00:00:00 | |
| LZ4TU-5 | 2026-09-05 00:52:05 | 44.57753 | 20.77021 | 125° | 49km/h | 9957m | -22.7m/s | -36.5°C | 15.5% | 0hPa | 5.3V | 00:00:00 | 00:00:00 | 00:00:00 | |
| LZ4TU-5 | 2026-09-05 00:49:19 | 44.59241 | 20.74890 | 152° | 49km/h | 14140m | -29.1m/s | -64.8°C | 0% | 0hPa | 5.3V | 00:00:00 | 00:00:00 | 00:00:00 | |
| LZ4TU-5 | 2026-09-05 00:49:14 | 44.59290 | 20.74851 | 145° | 49km/h | 14295m | -29.0m/s | -64.6°C | 1.4% | 0hPa | 5.3V | 00:00:00 | 00:00:00 | 00:00:00 | |
| OM5KV | 2026-09-05 00:46:52 | 44.59477 | 20.73491 | 57° | 27km/h | 19353m | -43.6m/s | -55.9°C | 0.0% | 0hPa | 5.3V | 00:00:00 | 00:00:00 | 00:00:00 | |
| OM5KV | 2026-09-05 00:46:37 | 44.59474 | 20.73395 | 124° | 16km/h | 20019m | -46.0m/s | -55.3°C | 0.0% | 0hPa | 5.3V | 00:00:00 | 00:00:00 | 00:00:00 | |
| OM5KV | 2026-09-05 00:46:24 | 44.59507 | 20.73304 | 132° | 18km/h | 20623m | -48.0m/s | -56.4°C | 0.0% | 0hPa | 5.3V | 00:00:00 | 00:00:00 | 00:00:00 | |
| OM5KV | 2026-09-05 00:46:05 | 44.59501 | 20.73277 | 6° | 7km/h | 21567m | -51.6m/s | -55.6°C | 0.0% | 0hPa | 5.3V | 00:00:00 | 00:00:00 | 00:00:00 | |
| OM5KV | 2026-09-05 00:45:58 | 44.59488 | 20.73286 | 28° | 9km/h | 21932m | -52.9m/s | -55.6°C | 0.0% | 0hPa | 5.3V | 00:00:00 | 00:00:00 | 00:00:00 | |
| OM5KV | 2026-09-05 00:45:42 | 44.59479 | 20.73265 | 15° | 7km/h | 22808m | -56.5m/s | -52.5°C | 0.0% | 0hPa | 5.3V | 00:00:00 | 00:00:00 | 00:00:00 | |
| OM5KV | 2026-09-05 00:45:36 | 44.59469 | 20.73251 | 71° | 5km/h | 23157m | -58.2m/s | -52.3°C | 0.0% | 0hPa | 5.3V | 00:00:00 | 00:00:00 | 00:00:00 | |
| OM5KV | 2026-09-05 00:45:28 | 44.59464 | 20.73258 | 342° | 4km/h | 23629m | -59.7m/s | -53.5°C | 0.0% | 0hPa | 5.3V | 00:00:00 | 00:00:00 | 00:00:00 | |
| OM5KV | 2026-09-05 00:45:17 | 44.59449 | 20.73245 | 11° | 7km/h | 24310m | -63.1m/s | -51.9°C | 0.1% | 0hPa | 5.3V | 00:00:00 | 00:00:00 | 00:00:00 | |
| OM5KV | 2026-09-05 00:45:05 | 44.59423 | 20.73229 | 39° | 11km/h | 25075m | -66.1m/s | -49.0°C | 0.0% | 0hPa | 5.3V | 00:00:00 | 00:00:00 | 00:00:00 | |
| OM5KV | 2026-09-05 00:44:59 | 44.59415 | 20.73203 | 103° | 11km/h | 25457m | -68.3m/s | -47.8°C | 0.0% | 0hPa | 5.3V | 00:00:00 | 00:00:00 | 00:00:00 | |
| OM5KV | 2026-09-05 00:44:53 | 44.59417 | 20.73187 | 78° | 9km/h | 25871m | -70.5m/s | -46.8°C | 0.0% | 0hPa | 5.3V | 00:00:00 | 00:00:00 | 00:00:00 | |
| OM5KV | 2026-09-05 00:44:47 | 44.59416 | 20.73155 | 112° | 13km/h | 26290m | -73.6m/s | -46.5°C | 0.0% | 0hPa | 5.3V | 00:00:00 | 00:00:00 | 00:00:00 | |
| OM5KV | 2026-09-05 00:44:23 | 44.59428 | 20.73094 | 0° | 0km/h | 28125m | -80.1m/s | -44.7°C | 0.0% | 0hPa | 5.3V | 00:00:00 | 00:00:00 | 00:00:00 | |
| LZ4TU-5 | 2026-09-05 00:44:17 | 44.59420 | 20.73086 | 55° | 7km/h | 28596m | -78.3m/s | -45.2°C | 0.2% | 0hPa | 5.3V | 00:00:00 | 00:00:00 | 00:00:00 | |
| LZ4TU-5 | 2026-09-05 00:44:12 | 44.59426 | 20.73073 | 0° | 0km/h | 28978m | -77.9m/s | -44.5°C | 0.2% | 0hPa | 5.3V | 00:00:00 | 00:00:00 | 00:00:00 | |
| OM5KV | 2026-09-05 00:44:10 | 44.59427 | 20.73072 | 0° | 0km/h | 29133m | -77.9m/s | -44.6°C | 0.2% | 0hPa | 5.3V | 00:00:00 | 00:00:00 | 00:00:00 | |
| OM5KV | 2026-09-05 00:44:05 | 44.59431 | 20.73073 | 211° | 4km/h | 29525m | -79.9m/s | -44.1°C | 0.2% | 0hPa | 5.3V | 00:00:00 | 00:00:00 | 00:00:00 | |
| OM5KV | 2026-09-05 00:43:49 | 44.59422 | 20.73097 | 347° | 9km/h | 30851m | -81.2m/s | -40.9°C | 0.0% | 0hPa | 5.3V | 00:00:00 | 00:00:00 | 00:00:00 | |
| OM5KV | 2026-09-05 00:43:38 | 44.59382 | 20.73102 | 5° | 26km/h | 31684m | -47.9m/s | -41.2°C | 0.0% | 0hPa | 5.3V | 00:00:00 | 00:00:00 | 00:00:00 | |
| OM5KV | 2026-09-05 00:43:31 | 44.59343 | 20.73062 | 61° | 35km/h | 31816m | 4.4m/s | -41.7°C | 0.0% | 0hPa | 5.3V | 00:00:00 | 00:00:00 | 00:00:00 | |
| 9A1FER-3 | 2026-09-05 00:43:30 | 44.59339 | 20.73053 | 110° | 15km/h | 31809m | 7.6m/s | -41.3°C | 0% | 0hPa | 5.3V | 00:00:00 | 00:00:00 | 00:00:00 | |
| OM5KV | 2026-09-05 00:43:25 | 44.59344 | 20.73084 | 288° | 44km/h | 31769m | 6.5m/s | -41.9°C | 0.0% | 0hPa | 5.3V | 00:00:00 | 00:00:00 | 00:00:00 | |
| OM5KV | 2026-09-05 00:43:19 | 44.59324 | 20.73105 | 82° | 22km/h | 31729m | 6.6m/s | -42.0°C | 0.0% | 0hPa | 5.3V | 00:00:00 | 00:00:00 | 00:00:00 | |
| 9A1FER-3 | 2026-09-05 00:43:14 | 44.59317 | 20.73123 | 277° | 31km/h | 31693m | 7.6m/s | -41.7°C | 0% | 0hPa | 5.3V | 00:00:00 | 00:00:00 | 00:00:00 | |
| OM5KV | 2026-09-05 00:43:13 | 44.59315 | 20.73137 | 288° | 38km/h | 31689m | 4.0m/s | -42.1°C | 0.0% | 0hPa | 5.3V | 00:00:00 | 00:00:00 | 00:00:00 | |
| OM5KV | 2026-09-05 00:43:07 | 44.59275 | 20.73146 | 128° | 13km/h | 31658m | 5.6m/s | -42.3°C | 0.0% | 0hPa | 5.3V | 00:00:00 | 00:00:00 | 00:00:00 | |
| OM5KV | 2026-09-05 00:43:01 | 44.59280 | 20.73177 | 301° | 44km/h | 31624m | 7.8m/s | -42.2°C | 0.0% | 0hPa | 5.3V | 00:00:00 | 00:00:00 | 00:00:00 | |
| OM5KV | 2026-09-05 00:42:55 | 44.59248 | 20.73169 | 223° | 20km/h | 31581m | 8.6m/s | -42.2°C | 0.0% | 0hPa | 5.3V | 00:00:00 | 00:00:00 | 00:00:00 | |
| 9A1FER-3 | 2026-09-05 00:42:54 | 44.59251 | 20.73173 | 234° | 27km/h | 31573m | 9.3m/s | -41.9°C | 0% | 0hPa | 5.3V | 00:00:00 | 00:00:00 | 00:00:00 | |
| OM5KV | 2026-09-05 00:42:50 | 44.59260 | 20.73231 | 275° | 40km/h | 31547m | 4.5m/s | -42.5°C | 0.0% | 0hPa | 5.4V | 00:00:00 | 00:00:00 | 00:00:00 | |
| OM5KV | 2026-09-05 00:42:44 | 44.59247 | 20.73242 | 271° | 11km/h | 31506m | 8.1m/s | -42.4°C | 0.0% | 0hPa | 5.4V | 00:00:00 | 00:00:00 | 00:00:00 | |
| OM5KV | 2026-09-05 00:42:38 | 44.59263 | 20.73302 | 300° | 16km/h | 31462m | 8.5m/s | -42.6°C | 0.0% | 0hPa | 5.4V | 00:00:00 | 00:00:00 | 00:00:00 | |
| 9A1FER-3 | 2026-09-05 00:42:35 | 44.59246 | 20.73306 | 16° | 20km/h | 31439m | 6.0m/s | -42.2°C | 0% | 0hPa | 5.4V | 00:00:00 | 00:00:00 | 00:00:00 | |
| OM5KV | 2026-09-05 00:42:32 | 44.59243 | 20.73302 | 210° | 15km/h | 31419m | 5.9m/s | -42.7°C | 0.0% | 0hPa | 5.4V | 00:00:00 | 00:00:00 | 00:00:00 | |
| OM5KV | 2026-09-05 00:42:27 | 44.59242 | 20.73343 | 325° | 26km/h | 31385m | 6.5m/s | -43.0°C | 0.0% | 0hPa | 5.4V | 00:00:00 | 00:00:00 | 00:00:00 | |
| OM5KV | 2026-09-05 00:42:21 | 44.59238 | 20.73343 | 227° | 7km/h | 31342m | 7.8m/s | -42.9°C | 0.0% | 0hPa | 5.4V | 00:00:00 | 00:00:00 | 00:00:00 | |
| OM5KV | 2026-09-05 00:42:14 | 44.59241 | 20.73364 | 177° | 24km/h | 31293m | 6.4m/s | -42.9°C | 0.0% | 0hPa | 5.4V | 00:00:00 | 00:00:00 | 00:00:00 | |
| OM5KV | 2026-09-05 00:42:08 | 44.59249 | 20.73379 | 308° | 22km/h | 31252m | 7.0m/s | -42.9°C | 0.0% | 0hPa | 5.4V | 00:00:00 | 00:00:00 | 00:00:00 | |
| OM5KV | 2026-09-05 00:41:58 | 44.59263 | 20.73385 | 271° | 26km/h | 31178m | 6.5m/s | -43.0°C | 0.0% | 0hPa | 5.4V | 00:00:00 | 00:00:00 | 00:00:00 | |
| OM5KV | 2026-09-05 00:41:52 | 44.59254 | 20.73393 | 148° | 11km/h | 31133m | 7.5m/s | -43.0°C | 0.0% | 0hPa | 5.4V | 00:00:00 | 00:00:00 | 00:00:00 | |
| OM5KV | 2026-09-05 00:41:46 | 44.59257 | 20.73393 | 309° | 18km/h | 31093m | 7.4m/s | -43.2°C | 0.0% | 0hPa | 5.4V | 00:00:00 | 00:00:00 | 00:00:00 | |
| OM5KV | 2026-09-05 00:41:40 | 44.59259 | 20.73402 | 52° | 7km/h | 31048m | 7.7m/s | -43.3°C | 0.0% | 0hPa | 5.4V | 00:00:00 | 00:00:00 | 00:00:00 | |
| OM5KV | 2026-09-05 00:41:34 | 44.59254 | 20.73408 | 254° | 18km/h | 31007m | 6.7m/s | -43.2°C | 0.0% | 0hPa | 5.4V | 00:00:00 | 00:00:00 | 00:00:00 | |
| OM5KV | 2026-09-05 00:41:18 | 44.59219 | 20.73465 | 216° | 7km/h | 30895m | 6.5m/s | -43.1°C | 61.0% | 0hPa | 5.4V | 00:00:00 | 00:00:00 | 00:00:00 | |
| OM5KV | 2026-09-05 00:41:12 | 44.59209 | 20.73484 | 325° | 31km/h | 30852m | 7.6m/s | -43.2°C | 0.0% | 0hPa | 5.4V | 00:00:00 | 00:00:00 | 00:00:00 | |
| OM5KV | 2026-09-05 00:40:38 | 44.59184 | 20.73649 | 231° | 27km/h | 30621m | 7.3m/s | -44.0°C | 0.0% | 0hPa | 5.4V | 00:00:00 | 00:00:00 | 00:00:00 | |
| LZ4TU-5 | 2026-09-05 00:40:37 | 44.59187 | 20.73656 | 248° | 20km/h | 30614m | 7.4m/s | -44.0°C | 0.0% | 0hPa | 5.4V | 00:00:00 | 00:00:00 | 00:00:00 | |
| OM5KV | 2026-09-05 00:40:32 | 44.59186 | 20.73669 | 215° | 11km/h | 30580m | 5.9m/s | -44.0°C | 0.0% | 0hPa | 5.4V | 00:00:00 | 00:00:00 | 00:00:00 | |
| OM5KV | 2026-09-05 00:40:26 | 44.59219 | 20.73672 | 203° | 20km/h | 30536m | 7.8m/s | -44.1°C | 0.0% | 0hPa | 5.4V | 00:00:00 | 00:00:00 | 00:00:00 | |
| OM5KV | 2026-09-05 00:40:14 | 44.59258 | 20.73684 | 182° | 20km/h | 30456m | 4.6m/s | -44.5°C | 0.0% | 0hPa | 5.4V | 00:00:00 | 00:00:00 | 00:00:00 | |
| OM5KV | 2026-09-05 00:40:08 | 44.59278 | 20.73713 | 169° | 15km/h | 30417m | 8.2m/s | -45.1°C | 0.0% | 0hPa | 5.4V | 00:00:00 | 00:00:00 | 00:00:00 | |
| OM5KV | 2026-09-05 00:40:02 | 44.59306 | 20.73701 | 239° | 27km/h | 30377m | 7.9m/s | -45.3°C | 0.0% | 0hPa | 5.4V | 00:00:00 | 00:00:00 | 00:00:00 | |
| OM5KV | 2026-09-05 00:39:56 | 44.59315 | 20.73718 | 137° | 22km/h | 30336m | 7.9m/s | -46.0°C | 0.0% | 0hPa | 5.4V | 00:00:00 | 00:00:00 | 00:00:00 | |
| OM5KV | 2026-09-05 00:39:45 | 44.59358 | 20.73713 | 28° | 5km/h | 30263m | 8.0m/s | -46.5°C | 0.0% | 0hPa | 5.4V | 00:00:00 | 00:00:00 | 00:00:00 | |
| OM5KV | 2026-09-05 00:39:39 | 44.59379 | 20.73688 | 214° | 33km/h | 30225m | 4.8m/s | -46.9°C | 0.0% | 0hPa | 5.4V | 00:00:00 | 00:00:00 | 00:00:00 | |
| OM5KV | 2026-09-05 00:39:33 | 44.59375 | 20.73719 | 63° | 9km/h | 30184m | 7.6m/s | -47.3°C | 0.0% | 0hPa | 5.4V | 00:00:00 | 00:00:00 | 00:00:00 | |
| OM5KV | 2026-09-05 00:39:27 | 44.59392 | 20.73707 | 280° | 15km/h | 30144m | 7.4m/s | -47.4°C | 0.0% | 0hPa | 5.4V | 00:00:00 | 00:00:00 | 00:00:00 | |
| OM5KV | 2026-09-05 00:39:21 | 44.59389 | 20.73730 | 122° | 7km/h | 30102m | 7.8m/s | -47.3°C | 0.0% | 0hPa | 5.4V | 00:00:00 | 00:00:00 | 00:00:00 | |
| OM5KV | 2026-09-05 00:39:15 | 44.59404 | 20.73728 | 232° | 35km/h | 30062m | 7.2m/s | -47.0°C | 0.0% | 0hPa | 5.4V | 00:00:00 | 00:00:00 | 00:00:00 | |
| OM5KV | 2026-09-05 00:39:09 | 44.59403 | 20.73753 | 80° | 16km/h | 30020m | 8.1m/s | -46.8°C | 0.0% | 0hPa | 5.4V | 00:00:00 | 00:00:00 | 00:00:00 | |
| OM5KV | 2026-09-05 00:39:03 | 44.59418 | 20.73757 | 233° | 29km/h | 29978m | 6.0m/s | -46.6°C | 0.0% | 0hPa | 5.4V | 00:00:00 | 00:00:00 | 00:00:00 | |
| OM5KV | 2026-09-05 00:38:56 | 44.59415 | 20.73759 | 130° | 18km/h | 29933m | 7.9m/s | -46.9°C | 0.0% | 0hPa | 5.4V | 00:00:00 | 00:00:00 | 00:00:00 | |
| OM5KV | 2026-09-05 00:38:50 | 44.59442 | 20.73792 | 296° | 26km/h | 29893m | 6.9m/s | -46.8°C | 0.0% | 0hPa | 5.4V | 00:00:00 | 00:00:00 | 00:00:00 | |
| OM5KV | 2026-09-05 00:38:44 | 44.59438 | 20.73772 | 106° | 15km/h | 29852m | 7.2m/s | -46.6°C | 0.0% | 0hPa | 5.4V | 00:00:00 | 00:00:00 | 00:00:00 | |
| OM5KV | 2026-09-05 00:38:26 | 44.59449 | 20.73790 | 287° | 5km/h | 29729m | 6.7m/s | -46.6°C | 0.0% | 0hPa | 5.4V | 00:00:00 | 00:00:00 | 00:00:00 | |
| OM5KV | 2026-09-05 00:38:20 | 44.59466 | 20.73755 | 147° | 11km/h | 29689m | 6.2m/s | -46.6°C | 0.0% | 0hPa | 5.4V | 00:00:00 | 00:00:00 | 00:00:00 | |
| OM5KV | 2026-09-05 00:38:14 | 44.59476 | 20.73747 | 103° | 11km/h | 29649m | 6.0m/s | -46.4°C | 0.0% | 0hPa | 5.4V | 00:00:00 | 00:00:00 | 00:00:00 | |
| OM5KV | 2026-09-05 00:38:08 | 44.59483 | 20.73737 | 119° | 16km/h | 29609m | 4.7m/s | -46.3°C | 0.0% | 0hPa | 5.4V | 00:00:00 | 00:00:00 | 00:00:00 | |
| 9A1FER-3 | 2026-09-05 00:38:00 | 44.59486 | 20.73710 | 116° | 11km/h | 29558m | 6.0m/s | -45.6°C | 0% | 0hPa | 5.4V | 00:00:00 | 00:00:00 | 00:00:00 | |
| OM5KV | 2026-09-05 00:37:56 | 44.59497 | 20.73703 | 215° | 20km/h | 29530m | 7.1m/s | -46.0°C | 0.0% | 0hPa | 5.4V | 00:00:00 | 00:00:00 | 00:00:00 | |
| OM5KV | 2026-09-05 00:37:45 | 44.59519 | 20.73706 | 168° | 13km/h | 29458m | 7.0m/s | -45.9°C | 0.0% | 0hPa | 5.4V | 00:00:00 | 00:00:00 | 00:00:00 | |
| 9A1FER-3 | 2026-09-05 00:37:42 | 44.59519 | 20.73695 | 45° | 15km/h | 29435m | 7.7m/s | -45.5°C | 0% | 0hPa | 5.4V | 00:00:00 | 00:00:00 | 00:00:00 | |
| OM5KV | 2026-09-05 00:37:39 | 44.59518 | 20.73693 | 164° | 9km/h | 29413m | 7.8m/s | -46.1°C | 0.0% | 0hPa | 5.4V | 00:00:00 | 00:00:00 | 00:00:00 | |
| LZ4TU-5 | 2026-09-05 00:37:37 | 44.59525 | 20.73688 | 156° | 18km/h | 29399m | 5.6m/s | -46.2°C | 0.0% | 0hPa | 5.4V | 00:00:00 | 00:00:00 | 00:00:00 | |
| LZ4TU-5 | 2026-09-05 00:37:32 | 44.59539 | 20.73688 | 340° | 9km/h | 29366m | 6.3m/s | -46.4°C | 0.0% | 0hPa | 5.4V | 00:00:00 | 00:00:00 | 00:00:00 | |
| OM5KV | 2026-09-05 00:37:27 | 44.59524 | 20.73664 | 72° | 16km/h | 29330m | 7.7m/s | -46.4°C | 0.0% | 0hPa | 5.4V | 00:00:00 | 00:00:00 | 00:00:00 | |
| OM5KV | 2026-09-05 00:37:21 | 44.59521 | 20.73670 | 312° | 13km/h | 29286m | 7.7m/s | -46.4°C | 0.0% | 0hPa | 5.4V | 00:00:00 | 00:00:00 | 00:00:00 | |
| OM5KV | 2026-09-05 00:37:15 | 44.59501 | 20.73638 | 72° | 20km/h | 29249m | 4.5m/s | -46.6°C | 0.0% | 0hPa | 5.4V | 00:00:00 | 00:00:00 | 00:00:00 | |
| OM5KV | 2026-09-05 00:37:09 | 44.59511 | 20.73644 | 333° | 11km/h | 29207m | 7.5m/s | -46.5°C | 0.0% | 0hPa | 5.4V | 00:00:00 | 00:00:00 | 00:00:00 | |
| 9A1FER-3 | 2026-09-05 00:36:58 | 44.59491 | 20.73633 | 281° | 16km/h | 29127m | 7.3m/s | -45.9°C | 0% | 0hPa | 5.4V | 00:00:00 | 00:00:00 | 00:00:00 | |
| OM5KV | 2026-09-05 00:36:57 | 44.59490 | 20.73636 | 322° | 5km/h | 29121m | 6.3m/s | -46.3°C | 0.0% | 0hPa | 5.4V | 00:00:00 | 00:00:00 | 00:00:00 | |
| OM5KV | 2026-09-05 00:36:51 | 44.59480 | 20.73611 | 78° | 9km/h | 29077m | 6.4m/s | -46.2°C | 0.0% | 0hPa | 5.4V | 00:00:00 | 00:00:00 | 00:00:00 | |
| OM5KV | 2026-09-05 00:36:40 | 44.59484 | 20.73592 | 48° | 18km/h | 28998m | 6.1m/s | -46.2°C | 0.0% | 0hPa | 5.4V | 00:00:00 | 00:00:00 | 00:00:00 | |
| OM5KV | 2026-09-05 00:36:34 | 44.59490 | 20.73595 | 137° | 15km/h | 28953m | 6.9m/s | -46.2°C | 0.0% | 0hPa | 5.4V | 00:00:00 | 00:00:00 | 00:00:00 | |
| OM5KV | 2026-09-05 00:36:28 | 44.59498 | 20.73567 | 15° | 5km/h | 28910m | 8.8m/s | -46.1°C | 0.0% | 0hPa | 5.4V | 00:00:00 | 00:00:00 | 00:00:00 | |
| 9A1FER-3 | 2026-09-05 00:36:27 | 44.59496 | 20.73566 | 7° | 15km/h | 28902m | 7.9m/s | -45.6°C | 0% | 0hPa | 5.4V | 00:00:00 | 00:00:00 | 00:00:00 | |
| OM5KV | 2026-09-05 00:36:18 | 44.59486 | 20.73539 | 43° | 15km/h | 28835m | 8.4m/s | -46.5°C | 0.0% | 0hPa | 5.4V | 00:00:00 | 00:00:00 | 00:00:00 | |
| OM5KV | 2026-09-05 00:36:13 | 44.59468 | 20.73528 | 69° | 9km/h | 28800m | 5.6m/s | -46.7°C | 0.0% | 0hPa | 5.4V | 00:00:00 | 00:00:00 | 00:00:00 | |
| OM5KV | 2026-09-05 00:36:07 | 44.59467 | 20.73506 | 53° | 29km/h | 28756m | 9.0m/s | -47.1°C | 0.0% | 0hPa | 5.4V | 00:00:00 | 00:00:00 | 00:00:00 | |
| OM5KV | 2026-09-05 00:36:01 | 44.59435 | 20.73486 | 0° | 0km/h | 28718m | 4.1m/s | -47.3°C | 0.1% | 0hPa | 5.4V | 00:00:00 | 00:00:00 | 00:00:00 | |
| LZ4TU-5 | 2026-09-05 00:35:59 | 44.59438 | 20.73480 | 111° | 20km/h | 28703m | 8.7m/s | -47.3°C | 0.1% | 0hPa | 5.4V | 00:00:00 | 00:00:00 | 00:00:00 | |
| OM5KV | 2026-09-05 00:35:56 | 44.59434 | 20.73442 | 67° | 44km/h | 28682m | 7.7m/s | -47.3°C | 0.1% | 0hPa | 5.4V | 00:00:00 | 00:00:00 | 00:00:00 | |
| LZ4TU-5 | 2026-09-05 00:35:55 | 44.59428 | 20.73429 | 50° | 37km/h | 28674m | 7.1m/s | -47.3°C | 0.1% | 0hPa | 5.4V | 00:00:00 | 00:00:00 | 00:00:00 | |
| OM5KV | 2026-09-05 00:35:50 | 44.59407 | 20.73417 | 115° | 13km/h | 28637m | 7.7m/s | -47.1°C | 0.1% | 0hPa | 5.4V | 00:00:00 | 00:00:00 | 00:00:00 | |
| OM5KV | 2026-09-05 00:35:44 | 44.59395 | 20.73373 | 26° | 29km/h | 28593m | 5.9m/s | -46.9°C | 0.1% | 0hPa | 5.4V | 00:00:00 | 00:00:00 | 00:00:00 | |
| 9A1FER-3 | 2026-09-05 00:35:42 | 44.59380 | 20.73370 | 352° | 22km/h | 28577m | 9.2m/s | -46.3°C | 0% | 0hPa | 5.4V | 00:00:00 | 00:00:00 | 00:00:00 | |
| OM5KV | 2026-09-05 00:35:38 | 44.59362 | 20.73372 | 76° | 18km/h | 28550m | 9.5m/s | -46.6°C | 0.0% | 0hPa | 5.4V | 00:00:00 | 00:00:00 | 00:00:00 | |
| OM5KV | 2026-09-05 00:35:31 | 44.59333 | 20.73324 | 338° | 24km/h | 28499m | 9.0m/s | -46.3°C | 0.0% | 0hPa | 5.4V | 00:00:00 | 00:00:00 | 00:00:00 | |
| OM5KV | 2026-09-05 00:35:25 | 44.59315 | 20.73335 | 36° | 33km/h | 28455m | 8.6m/s | -46.2°C | 0.0% | 0hPa | 5.4V | 00:00:00 | 00:00:00 | 00:00:00 | |
| 9A1FER-3 | 2026-09-05 00:35:24 | 44.59308 | 20.73327 | 42° | 18km/h | 28446m | 8.6m/s | -45.6°C | 0% | 0hPa | 5.4V | 00:00:00 | 00:00:00 | 00:00:00 | |
| OM5KV | 2026-09-05 00:35:14 | 44.59277 | 20.73329 | 39° | 16km/h | 28369m | 8.9m/s | -45.8°C | 0.0% | 0hPa | 5.4V | 00:00:00 | 00:00:00 | 00:00:00 | |
| OM5KV | 2026-09-05 00:35:07 | 44.59262 | 20.73310 | 235° | 15km/h | 28326m | 8.5m/s | -45.8°C | 0.0% | 0hPa | 5.4V | 00:00:00 | 00:00:00 | 00:00:00 | |
| OM5KV | 2026-09-05 00:35:01 | 44.59262 | 20.73324 | 25° | 9km/h | 28285m | 5.8m/s | -45.7°C | 0.0% | 0hPa | 5.4V | 00:00:00 | 00:00:00 | 00:00:00 | |
| OM5KV | 2026-09-05 00:34:56 | 44.59245 | 20.73315 | 320° | 9km/h | 28255m | 5.7m/s | -45.7°C | 0.0% | 0hPa | 5.4V | 00:00:00 | 00:00:00 | 00:00:00 | |
| OM5KV | 2026-09-05 00:34:39 | 44.59270 | 20.73347 | 181° | 15km/h | 28132m | 5.8m/s | -46.1°C | 0.0% | 0hPa | 5.4V | 00:00:00 | 00:00:00 | 00:00:00 | |
| OM5KV | 2026-09-05 00:34:28 | 44.59290 | 20.73353 | 162° | 16km/h | 28058m | 6.4m/s | -46.6°C | 0.0% | 0hPa | 5.4V | 00:00:00 | 00:00:00 | 00:00:00 | |
| LZ4TU-5 | 2026-09-05 00:34:19 | 44.59301 | 20.73331 | 159° | 7km/h | 27997m | 7.7m/s | -46.6°C | 0.0% | 0hPa | 5.4V | 00:00:00 | 00:00:00 | 00:00:00 | |
| OM5KV | 2026-09-05 00:34:17 | 44.59308 | 20.73329 | 167° | 18km/h | 27984m | 4.9m/s | -46.6°C | 0.0% | 0hPa | 5.4V | 00:00:00 | 00:00:00 | 00:00:00 | |
| OM5KV | 2026-09-05 00:34:12 | 44.59312 | 20.73300 | 50° | 22km/h | 27950m | 7.8m/s | -46.6°C | 0.0% | 0hPa | 5.4V | 00:00:00 | 00:00:00 | 00:00:00 | |
| OM5KV | 2026-09-05 00:34:00 | 44.59314 | 20.73275 | 12° | 15km/h | 27872m | 7.7m/s | -46.7°C | 0.0% | 0hPa | 5.4V | 00:00:00 | 00:00:00 | 00:00:00 | |
| OM5KV | 2026-09-05 00:33:55 | 44.59290 | 20.73266 | 0° | 0km/h | 27836m | 7.1m/s | -46.8°C | 0.0% | 0hPa | 5.4V | 00:00:00 | 00:00:00 | 00:00:00 | |
| OM5KV | 2026-09-05 00:33:39 | 44.59251 | 20.73263 | 296° | 4km/h | 27732m | 6.1m/s | -47.2°C | 0.0% | 0hPa | 5.4V | 00:00:00 | 00:00:00 | 00:00:00 | |
| 9A1FER-3 | 2026-09-05 00:33:31 | 44.59217 | 20.73273 | 320° | 13km/h | 27682m | 8.1m/s | -46.8°C | 0% | 0hPa | 5.4V | 00:00:00 | 00:00:00 | 00:00:00 | |
| OM5KV | 2026-09-05 00:33:28 | 44.59225 | 20.73288 | 226° | 9km/h | 27652m | 6.8m/s | -47.6°C | 0.0% | 0hPa | 5.4V | 00:00:00 | 00:00:00 | 00:00:00 | |
| OM5KV | 2026-09-05 00:33:22 | 44.59218 | 20.73294 | 350° | 7km/h | 27621m | 5.1m/s | -47.8°C | 0.0% | 0hPa | 5.4V | 00:00:00 | 00:00:00 | 00:00:00 | |
| OM5KV | 2026-09-05 00:33:16 | 44.59219 | 20.73291 | 266° | 7km/h | 27585m | 6.2m/s | -47.8°C | 0.0% | 0hPa | 5.4V | 00:00:00 | 00:00:00 | 00:00:00 | |
| OM5KV | 2026-09-05 00:33:10 | 44.59215 | 20.73300 | 81° | 20km/h | 27545m | 6.4m/s | -47.9°C | 0.0% | 0hPa | 5.4V | 00:00:00 | 00:00:00 | 00:00:00 | |
| OM5KV | 2026-09-05 00:32:59 | 44.59219 | 20.73280 | 73° | 18km/h | 27472m | 9.8m/s | -47.7°C | 0.0% | 0hPa | 5.4V | 00:00:00 | 00:00:00 | 00:00:00 | |
| OM5KV | 2026-09-05 00:32:52 | 44.59217 | 20.73246 | 242° | 5km/h | 27423m | 6.8m/s | -47.3°C | 0.0% | 0hPa | 5.4V | 00:00:00 | 00:00:00 | 00:00:00 | |
| OM5KV | 2026-09-05 00:32:46 | 44.59209 | 20.73244 | 54° | 15km/h | 27386m | 6.8m/s | -47.2°C | 0.0% | 0hPa | 5.4V | 00:00:00 | 00:00:00 | 00:00:00 | |
| OM5KV | 2026-09-05 00:32:39 | 44.59217 | 20.73228 | 321° | 11km/h | 27341m | 5.6m/s | -47.3°C | 0.0% | 0hPa | 5.4V | 00:00:00 | 00:00:00 | 00:00:00 | |
| OM5KV | 2026-09-05 00:32:15 | 44.59232 | 20.73210 | 158° | 11km/h | 27184m | 7.4m/s | -47.4°C | 0.0% | 0hPa | 5.4V | 00:00:00 | 00:00:00 | 00:00:00 | |
| OM5KV | 2026-09-05 00:32:10 | 44.59246 | 20.73193 | 143° | 18km/h | 27153m | 6.8m/s | -47.4°C | 0.0% | 0hPa | 5.4V | 00:00:00 | 00:00:00 | 00:00:00 | |
| 9A1FER-3 | 2026-09-05 00:32:09 | 44.59249 | 20.73190 | 164° | 15km/h | 27145m | 8.6m/s | -46.9°C | 0% | 0hPa | 5.4V | 00:00:00 | 00:00:00 | 00:00:00 | |
| OM5KV | 2026-09-05 00:31:57 | 44.59300 | 20.73158 | 151° | 22km/h | 27063m | 8.7m/s | -47.6°C | 0.0% | 0hPa | 5.4V | 00:00:00 | 00:00:00 | 00:00:00 | |
| OM5KV | 2026-09-05 00:31:52 | 44.59318 | 20.73150 | 188° | 16km/h | 27031m | 6.1m/s | -47.6°C | 0.0% | 0hPa | 5.4V | 00:00:00 | 00:00:00 | 00:00:00 | |
| OM5KV | 2026-09-05 00:31:46 | 44.59349 | 20.73108 | 124° | 33km/h | 26995m | 4.4m/s | -48.0°C | 0.0% | 0hPa | 5.4V | 00:00:00 | 00:00:00 | 00:00:00 | |
| OM5KV | 2026-09-05 00:31:41 | 44.59364 | 20.73097 | 153° | 11km/h | 26960m | 5.7m/s | -48.2°C | 0.0% | 0hPa | 5.4V | 00:00:00 | 00:00:00 | 00:00:00 | |
| OM5KV | 2026-09-05 00:31:35 | 44.59378 | 20.73068 | 120° | 20km/h | 26922m | 6.9m/s | -48.4°C | 0.0% | 0hPa | 5.4V | 00:00:00 | 00:00:00 | 00:00:00 | |
| OE3JTB-15 | 2026-09-05 00:31:33 | 44.59384 | 20.73054 | 134° | 16km/h | 26909m | 4.3m/s | -47.8°C | 0% | 0hPa | 5.4V | 00:00:00 | 00:00:00 | 00:00:00 | |
| OM5KV | 2026-09-05 00:31:29 | 44.59395 | 20.73050 | 200° | 5km/h | 26880m | 7.2m/s | -48.4°C | 0.0% | 0hPa | 5.4V | 00:00:00 | 00:00:00 | 00:00:00 | |
| 9A1FER-3 | 2026-09-05 00:31:28 | 44.59397 | 20.73049 | 134° | 15km/h | 26872m | 7.9m/s | -47.9°C | 0% | 0hPa | 5.4V | 00:00:00 | 00:00:00 | 00:00:00 | |
| OM5KV | 2026-09-05 00:31:23 | 44.59415 | 20.73028 | 158° | 18km/h | 26841m | 5.9m/s | -48.4°C | 0.0% | 0hPa | 5.4V | 00:00:00 | 00:00:00 | 00:00:00 | |
| LZ4TU-5 | 2026-09-05 00:31:19 | 44.59426 | 20.73013 | 87° | 18km/h | 26815m | 5.6m/s | -48.4°C | 0.0% | 0hPa | 5.4V | 00:00:00 | 00:00:00 | 00:00:00 | |
| GYPAP8-17 | 2026-09-05 00:31:18 | 44.59425 | 20.73007 | 80° | 15km/h | 26808m | 7.8m/s | -48.4°C | 0.0% | 0hPa | 5.4V | 00:00:00 | 00:00:00 | 00:00:00 | |
| OM5KV | 2026-09-05 00:31:17 | 44.59425 | 20.73003 | 109° | 9km/h | 26800m | 8.0m/s | -48.3°C | 0.0% | 0hPa | 5.4V | 00:00:00 | 00:00:00 | 00:00:00 | |
| LZ4TU-5 | 2026-09-05 00:31:14 | 44.59434 | 20.72999 | 167° | 16km/h | 26783m | 6.4m/s | -48.2°C | 0.0% | 0hPa | 5.4V | 00:00:00 | 00:00:00 | 00:00:00 | |
| 9A1FER-3 | 2026-09-05 00:31:13 | 44.59438 | 20.72997 | 151° | 20km/h | 26775m | 7.9m/s | -47.7°C | 0% | 0hPa | 5.4V | 00:00:00 | 00:00:00 | 00:00:00 | |
| OM5KV | 2026-09-05 00:31:11 | 44.59445 | 20.72985 | 116° | 26km/h | 26762m | 6.3m/s | -48.2°C | 0.0% | 0hPa | 5.4V | 00:00:00 | 00:00:00 | 00:00:00 | |
| OM5KV | 2026-09-05 00:31:05 | 44.59459 | 20.72965 | 191° | 4km/h | 26722m | 5.2m/s | -48.2°C | 0.0% | 0hPa | 5.4V | 00:00:00 | 00:00:00 | 00:00:00 | |
| OE3JTB-15 | 2026-09-05 00:31:03 | 44.59464 | 20.72962 | 152° | 18km/h | 26708m | 7.5m/s | -47.7°C | 0% | 0hPa | 5.4V | 00:00:00 | 00:00:00 | 00:00:00 | |
| 9A1FER-3 | 2026-09-05 00:30:53 | 44.59497 | 20.72905 | 149° | 16km/h | 26641m | 6.9m/s | -47.9°C | 0% | 0hPa | 5.5V | 00:00:00 | 00:00:00 | 00:00:00 | |
| OM5KV | 2026-09-05 00:30:47 | 44.59500 | 20.72857 | 86° | 22km/h | 26601m | 6.8m/s | -48.4°C | 0.0% | 0hPa | 5.5V | 00:00:00 | 00:00:00 | 00:00:00 | |
| OM5KV | 2026-09-05 00:30:41 | 44.59510 | 20.72840 | 82° | 9km/h | 26559m | 8.0m/s | -48.4°C | 0.0% | 0hPa | 5.5V | 00:00:00 | 00:00:00 | 00:00:00 | |
| OM5KV | 2026-09-05 00:30:36 | 44.59501 | 20.72802 | 108° | 29km/h | 26528m | 6.3m/s | -48.6°C | 0.0% | 0hPa | 5.5V | 00:00:00 | 00:00:00 | 00:00:00 | |
| OE3JTB-15 | 2026-09-05 00:30:34 | 44.59508 | 20.72786 | 128° | 18km/h | 26516m | 6.4m/s | -48.0°C | 0% | 0hPa | 5.5V | 00:00:00 | 00:00:00 | 00:00:00 | |
| OM5KV | 2026-09-05 00:30:30 | 44.59506 | 20.72763 | 62° | 22km/h | 26488m | 7.8m/s | -48.6°C | 0.0% | 0hPa | 5.5V | 00:00:00 | 00:00:00 | 00:00:00 | |
| 9A1FER-3 | 2026-09-05 00:30:27 | 44.59495 | 20.72732 | 62° | 22km/h | 26463m | 6.7m/s | -48.1°C | 0% | 0hPa | 5.5V | 00:00:00 | 00:00:00 | 00:00:00 | |
| OM5KV | 2026-09-05 00:30:24 | 44.59496 | 20.72729 | 153° | 9km/h | 26451m | 5.6m/s | -48.7°C | 0.0% | 0hPa | 5.5V | 00:00:00 | 00:00:00 | 00:00:00 | |
| OM5KV | 2026-09-05 00:30:19 | 44.59502 | 20.72695 | 69° | 24km/h | 26416m | 7.4m/s | -48.8°C | 0.0% | 0hPa | 5.5V | 00:00:00 | 00:00:00 | 00:00:00 | |
| OM5KV | 2026-09-05 00:30:13 | 44.59495 | 20.72658 | 132° | 13km/h | 26378m | 7.1m/s | -48.7°C | 0.0% | 0hPa | 5.5V | 00:00:00 | 00:00:00 | 00:00:00 | |
| OM5KV | 2026-09-05 00:30:07 | 44.59489 | 20.72617 | 60° | 33km/h | 26339m | 7.5m/s | -48.6°C | 0.0% | 0hPa | 5.5V | 00:00:00 | 00:00:00 | 00:00:00 | |
| OE3JTB-15 | 2026-09-05 00:30:04 | 44.59477 | 20.72598 | 58° | 16km/h | 26319m | 8.1m/s | -48.1°C | 0% | 0hPa | 5.5V | 00:00:00 | 00:00:00 | 00:00:00 | |
| 9A1FER-3 | 2026-09-05 00:29:55 | 44.59474 | 20.72534 | 64° | 29km/h | 26260m | 5.3m/s | -48.3°C | 0% | 0hPa | 5.5V | 00:00:00 | 00:00:00 | 00:00:00 | |
| OM5KV | 2026-09-05 00:29:42 | 44.59449 | 20.72461 | 64° | 18km/h | 26174m | 6.1m/s | -49.0°C | 0.0% | 0hPa | 5.5V | 00:00:00 | 00:00:00 | 00:00:00 | |
| 9A1FER-3 | 2026-09-05 00:29:40 | 44.59447 | 20.72449 | 83° | 18km/h | 26160m | 7.6m/s | -48.4°C | 0% | 0hPa | 5.5V | 00:00:00 | 00:00:00 | 00:00:00 | |
| OM5KV | 2026-09-05 00:29:36 | 44.59440 | 20.72425 | 65° | 20km/h | 26136m | 6.0m/s | -49.0°C | 0.0% | 0hPa | 5.5V | 00:00:00 | 00:00:00 | 00:00:00 | |
| LZ4TU-5 | 2026-09-05 00:29:32 | 44.59427 | 20.72407 | 14° | 26km/h | 26112m | 7.7m/s | -49.0°C | 0.0% | 0hPa | 5.5V | 00:00:00 | 00:00:00 | 00:00:00 | |
| OM5KV | 2026-09-05 00:29:30 | 44.59412 | 20.72400 | 29° | 33km/h | 26100m | 5.8m/s | -49.1°C | 0.0% | 0hPa | 5.5V | 00:00:00 | 00:00:00 | 00:00:00 | |
| LZ4TU-5 | 2026-09-05 00:29:27 | 44.59399 | 20.72376 | 77° | 26km/h | 26081m | 5.3m/s | -49.1°C | 0.0% | 0hPa | 5.5V | 00:00:00 | 00:00:00 | 00:00:00 | |
| 9A1FER-3 | 2026-09-05 00:29:24 | 44.59391 | 20.72359 | 15° | 20km/h | 26062m | 5.7m/s | -48.5°C | 0% | 0hPa | 5.5V | 00:00:00 | 00:00:00 | 00:00:00 | |
| LZ4TU-5 | 2026-09-05 00:29:22 | 44.59382 | 20.72359 | 346° | 16km/h | 26048m | 7.7m/s | -49.1°C | 0.1% | 0hPa | 5.5V | 00:00:00 | 00:00:00 | 00:00:00 | |
| OM5KV | 2026-09-05 00:29:18 | 44.59369 | 20.72362 | 35° | 20km/h | 26023m | 5.8m/s | -49.1°C | 0.0% | 0hPa | 5.5V | 00:00:00 | 00:00:00 | 00:00:00 | |
| OM5KV | 2026-09-05 00:29:12 | 44.59358 | 20.72339 | 331° | 11km/h | 25987m | 5.9m/s | -49.1°C | 0.0% | 0hPa | 5.5V | 00:00:00 | 00:00:00 | 00:00:00 | |
| OM5KV | 2026-09-05 00:29:00 | 44.59341 | 20.72331 | 314° | 13km/h | 25911m | 5.6m/s | -48.9°C | 0.0% | 0hPa | 5.5V | 00:00:00 | 00:00:00 | 00:00:00 | |
| 9A1FER-3 | 2026-09-05 00:28:57 | 44.59330 | 20.72334 | 27° | 7km/h | 25891m | 5.8m/s | -48.3°C | 0% | 0hPa | 5.5V | 00:00:00 | 00:00:00 | 00:00:00 | |
| OM5KV | 2026-09-05 00:28:54 | 44.59330 | 20.72327 | 155° | 7km/h | 25872m | 7.9m/s | -48.8°C | 0.0% | 0hPa | 5.5V | 00:00:00 | 00:00:00 | 00:00:00 | |
| 9A1FER-3 | 2026-09-05 00:28:41 | 44.59335 | 20.72356 | 252° | 13km/h | 25788m | 6.7m/s | -48.7°C | 0% | 0hPa | 5.5V | 00:00:00 | 00:00:00 | 00:00:00 | |
| 9A1FER-3 | 2026-09-05 00:28:19 | 44.59387 | 20.72362 | 147° | 16km/h | 25642m | 7.9m/s | -48.8°C | 0% | 0hPa | 5.5V | 00:00:00 | 00:00:00 | 00:00:00 | |
| 9A1FER-3 | 2026-09-05 00:27:52 | 44.59381 | 20.72203 | 359° | 22km/h | 25464m | 5.5m/s | -49.9°C | 0% | 0hPa | 5.5V | 00:00:00 | 00:00:00 | 00:00:00 | |
| LZ4TU-5 | 2026-09-05 00:27:41 | 44.59330 | 20.72157 | 356° | 27km/h | 25397m | 7.1m/s | -51.0°C | 0.0% | 0hPa | 5.5V | 00:00:00 | 00:00:00 | 00:00:00 | |
| LZ4TU-5 | 2026-09-05 00:27:36 | 44.59299 | 20.72165 | 24° | 27km/h | 25363m | 7.2m/s | -51.2°C | 0.0% | 0hPa | 5.5V | 00:00:00 | 00:00:00 | 00:00:00 | |
| 9A1FER-3 | 2026-09-05 00:27:34 | 44.59286 | 20.72156 | 25° | 22km/h | 25352m | 6.1m/s | -50.6°C | 0% | 0hPa | 5.5V | 00:00:00 | 00:00:00 | 00:00:00 | |
| OM5KV | 2026-09-05 00:27:32 | 44.59277 | 20.72153 | 352° | 15km/h | 25340m | 3.8m/s | -51.3°C | 0.0% | 0hPa | 5.5V | 00:00:00 | 00:00:00 | 00:00:00 | |
| OM5KV | 2026-09-05 00:27:26 | 44.59262 | 20.72154 | 359° | 22km/h | 25301m | 4.8m/s | -51.4°C | 0.0% | 0hPa | 5.5V | 00:00:00 | 00:00:00 | 00:00:00 | |
| 9A1FER-3 | 2026-09-05 00:27:15 | 44.59224 | 20.72142 | 355° | 22km/h | 25231m | 7.5m/s | -50.7°C | 0% | 0hPa | 5.5V | 00:00:00 | 00:00:00 | 00:00:00 | |
| OM5KV | 2026-09-05 00:27:04 | 44.59194 | 20.72137 | 276° | 11km/h | 25165m | 3.7m/s | -51.4°C | 0.0% | 0hPa | 5.5V | 00:00:00 | 00:00:00 | 00:00:00 | |
| 9A1FER-3 | 2026-09-05 00:27:00 | 44.59174 | 20.72143 | 8° | 18km/h | 25139m | 5.6m/s | -50.7°C | 0% | 0hPa | 5.5V | 00:00:00 | 00:00:00 | 00:00:00 | |
| OM5KV | 2026-09-05 00:26:58 | 44.59161 | 20.72139 | 23° | 16km/h | 25125m | 6.4m/s | -51.3°C | 0.0% | 0hPa | 5.5V | 00:00:00 | 00:00:00 | 00:00:00 | |
| OM5KV | 2026-09-05 00:26:52 | 44.59153 | 20.72156 | 319° | 22km/h | 25090m | 5.8m/s | -51.2°C | 0.0% | 0hPa | 5.5V | 00:00:00 | 00:00:00 | 00:00:00 | |
| OM5KV | 2026-09-05 00:26:47 | 44.59127 | 20.72150 | 15° | 26km/h | 25059m | 6.5m/s | -51.3°C | 0.0% | 0hPa | 5.5V | 00:00:00 | 00:00:00 | 00:00:00 | |
| OM5KV | 2026-09-05 00:26:41 | 44.59108 | 20.72167 | 329° | 20km/h | 25021m | 6.7m/s | -51.5°C | 0.0% | 0hPa | 5.5V | 00:00:00 | 00:00:00 | 00:00:00 | |
| OM5KV | 2026-09-05 00:26:35 | 44.59081 | 20.72156 | 24° | 20km/h | 24984m | 5.5m/s | -52.0°C | 0.0% | 0hPa | 5.5V | 00:00:00 | 00:00:00 | 00:00:00 | |
| OM5KV | 2026-09-05 00:26:29 | 44.59060 | 20.72175 | 340° | 22km/h | 24945m | 6.2m/s | -52.1°C | 0.0% | 0hPa | 5.5V | 00:00:00 | 00:00:00 | 00:00:00 | |
| OM5KV | 2026-09-05 00:26:17 | 44.59031 | 20.72173 | 338° | 13km/h | 24867m | 7.7m/s | -52.3°C | 0.0% | 0hPa | 5.5V | 00:00:00 | 00:00:00 | 00:00:00 | |
| OM5KV | 2026-09-05 00:26:11 | 44.59029 | 20.72152 | 130° | 22km/h | 24833m | 5.3m/s | -52.5°C | 0.0% | 0hPa | 5.5V | 00:00:00 | 00:00:00 | 00:00:00 | |
| OM5KV | 2026-09-05 00:26:05 | 44.59013 | 20.72156 | 338° | 26km/h | 24792m | 7.3m/s | -52.7°C | 0.0% | 0hPa | 5.5V | 00:00:00 | 00:00:00 | 00:00:00 | |
| OM5KV | 2026-09-05 00:25:59 | 44.59004 | 20.72139 | 93° | 20km/h | 24756m | 3.1m/s | -52.9°C | 0.0% | 0hPa | 5.5V | 00:00:00 | 00:00:00 | 00:00:00 | |
| LZ4TU-5 | 2026-09-05 00:25:57 | 44.59002 | 20.72132 | 349° | 11km/h | 24745m | 6.6m/s | -53.0°C | 0.0% | 0hPa | 5.5V | 00:00:00 | 00:00:00 | 00:00:00 | |
| OM5KV | 2026-09-05 00:25:53 | 44.58983 | 20.72154 | 343° | 26km/h | 24717m | 6.3m/s | -53.2°C | 0.1% | 0hPa | 5.5V | 00:00:00 | 00:00:00 | 00:00:00 | |
| LZ4TU-5 | 2026-09-05 00:25:52 | 44.58976 | 20.72155 | 7° | 26km/h | 24712m | 5.0m/s | -53.2°C | 0.1% | 0hPa | 5.5V | 00:00:00 | 00:00:00 | 00:00:00 | |
| OM5KV | 2026-09-05 00:25:47 | 44.58964 | 20.72131 | 85° | 16km/h | 24680m | 6.3m/s | -53.4°C | 0.1% | 0hPa | 5.5V | 00:00:00 | 00:00:00 | 00:00:00 | |
| OM5KV | 2026-09-05 00:25:41 | 44.58945 | 20.72136 | 314° | 33km/h | 24640m | 6.3m/s | -53.3°C | 0.2% | 0hPa | 5.5V | 00:00:00 | 00:00:00 | 00:00:00 | |
| OM5KV | 2026-09-05 00:25:35 | 44.58930 | 20.72121 | 64° | 26km/h | 24600m | 4.8m/s | -53.3°C | 0.2% | 0hPa | 5.5V | 00:00:00 | 00:00:00 | 00:00:00 | |
| OM5KV | 2026-09-05 00:25:29 | 44.58910 | 20.72117 | 318° | 11km/h | 24563m | 7.2m/s | -53.3°C | 0.2% | 0hPa | 5.5V | 00:00:00 | 00:00:00 | 00:00:00 | |
| OM5KV | 2026-09-05 00:25:17 | 44.58878 | 20.72117 | 321° | 15km/h | 24482m | 7.0m/s | -53.3°C | 0.2% | 0hPa | 5.5V | 00:00:00 | 00:00:00 | 00:00:00 | |
| OM5KV | 2026-09-05 00:24:42 | 44.58843 | 20.72087 | 128° | 4km/h | 24254m | 5.1m/s | -53.1°C | 0.2% | 0hPa | 5.5V | 00:00:00 | 00:00:00 | 00:00:00 | |
| OM5KV | 2026-09-05 00:24:36 | 44.58843 | 20.72067 | 96° | 13km/h | 24216m | 5.2m/s | -53.0°C | 0.2% | 0hPa | 5.5V | 00:00:00 | 00:00:00 | 00:00:00 | |
| OM5KV | 2026-09-05 00:24:30 | 44.58836 | 20.72035 | 81° | 11km/h | 24177m | 6.5m/s | -53.1°C | 0.2% | 0hPa | 5.5V | 00:00:00 | 00:00:00 | 00:00:00 | |
| OM5KV | 2026-09-05 00:24:24 | 44.58831 | 20.72012 | 66° | 7km/h | 24139m | 4.9m/s | -53.1°C | 0.1% | 0hPa | 5.5V | 00:00:00 | 00:00:00 | 00:00:00 | |
| OM5KV | 2026-09-05 00:24:18 | 44.58823 | 20.71998 | 155° | 11km/h | 24101m | 5.9m/s | -53.0°C | 0.1% | 0hPa | 5.5V | 00:00:00 | 00:00:00 | 00:00:00 | |
| OM5KV | 2026-09-05 00:24:12 | 44.58817 | 20.72004 | 350° | 13km/h | 24062m | 5.3m/s | -53.0°C | 0.1% | 0hPa | 5.5V | 00:00:00 | 00:00:00 | 00:00:00 | |
| OM5KV | 2026-09-05 00:24:06 | 44.58802 | 20.72006 | 182° | 9km/h | 24025m | 7.4m/s | -53.1°C | 0.1% | 0hPa | 5.5V | 00:00:00 | 00:00:00 | 00:00:00 | |
| LZ4TU-5 | 2026-09-05 00:24:04 | 44.58809 | 20.72010 | 219° | 15km/h | 24013m | 6.4m/s | -53.1°C | 0.1% | 0hPa | 5.5V | 00:00:00 | 00:00:00 | 00:00:00 | |
| OM5KV | 2026-09-05 00:24:00 | 44.58804 | 20.72017 | 22° | 15km/h | 23987m | 7.5m/s | -53.4°C | 0.1% | 0hPa | 5.5V | 00:00:00 | 00:00:00 | 00:00:00 | |
| LZ4TU-5 | 2026-09-05 00:23:59 | 44.58801 | 20.72014 | 42° | 20km/h | 23982m | 5.7m/s | -53.4°C | 0.1% | 0hPa | 5.5V | 00:00:00 | 00:00:00 | 00:00:00 | |
| OM5KV | 2026-09-05 00:23:54 | 44.58793 | 20.72005 | 211° | 7km/h | 23953m | 6.4m/s | -53.4°C | 0.1% | 0hPa | 5.5V | 00:00:00 | 00:00:00 | 00:00:00 | |
| OM5KV | 2026-09-05 00:23:48 | 44.58800 | 20.72012 | 4° | 15km/h | 23917m | 4.2m/s | -53.4°C | 0.1% | 0hPa | 5.5V | 00:00:00 | 00:00:00 | 00:00:00 | |
| OM5KV | 2026-09-05 00:23:20 | 44.58757 | 20.71934 | 286° | 5km/h | 23741m | 6.3m/s | -53.9°C | 0.1% | 0hPa | 5.5V | 00:00:00 | 00:00:00 | 00:00:00 | |
| OE3JTB-15 | 2026-09-05 00:23:18 | 44.58756 | 20.71936 | 64° | 9km/h | 23729m | 7.8m/s | -53.1°C | 0% | 0hPa | 5.5V | 00:00:00 | 00:00:00 | 00:00:00 | |
| OM5KV | 2026-09-05 00:23:14 | 44.58751 | 20.71928 | 359° | 11km/h | 23704m | 5.5m/s | -53.8°C | 0.1% | 0hPa | 5.5V | 00:00:00 | 00:00:00 | 00:00:00 | |
| OM5KV | 2026-09-05 00:23:08 | 44.58746 | 20.71933 | 280° | 7km/h | 23667m | 5.5m/s | -54.2°C | 0.2% | 0hPa | 5.5V | 00:00:00 | 00:00:00 | 00:00:00 | |
| OM5KV | 2026-09-05 00:23:02 | 44.58736 | 20.71940 | 316° | 18km/h | 23631m | 5.6m/s | -54.5°C | 0.3% | 0hPa | 5.5V | 00:00:00 | 00:00:00 | 00:00:00 | |
| OM5KV | 2026-09-05 00:22:52 | 44.58752 | 20.71960 | 296° | 9km/h | 23570m | 7.0m/s | -54.6°C | 0.4% | 0hPa | 5.5V | 00:00:00 | 00:00:00 | 00:00:00 | |
| OE3JTB-15 | 2026-09-05 00:22:47 | 44.58742 | 20.71999 | 267° | 20km/h | 23539m | 6.5m/s | -53.8°C | 0% | 0hPa | 5.5V | 00:00:00 | 00:00:00 | 00:00:00 | |
| OM5KV | 2026-09-05 00:22:46 | 44.58744 | 20.72009 | 246° | 29km/h | 23535m | 4.5m/s | -54.5°C | 0.4% | 0hPa | 5.5V | 00:00:00 | 00:00:00 | 00:00:00 | |
| OM5KV | 2026-09-05 00:22:40 | 44.58766 | 20.72016 | 323° | 7km/h | 23498m | 5.0m/s | -54.2°C | 0.4% | 0hPa | 5.5V | 00:00:00 | 00:00:00 | 00:00:00 | |
| OM5KV | 2026-09-05 00:22:34 | 44.58756 | 20.72053 | 245° | 22km/h | 23462m | 6.6m/s | -54.0°C | 0.3% | 0hPa | 5.5V | 00:00:00 | 00:00:00 | 00:00:00 | |
| OM5KV | 2026-09-05 00:22:28 | 44.58779 | 20.72048 | 131° | 13km/h | 23428m | 5.5m/s | -53.9°C | 0.3% | 0hPa | 5.5V | 00:00:00 | 00:00:00 | 00:00:00 | |
| OM5KV | 2026-09-05 00:22:22 | 44.58779 | 20.72071 | 196° | 7km/h | 23392m | 5.2m/s | -53.8°C | 0.3% | 0hPa | 5.5V | 00:00:00 | 00:00:00 | 00:00:00 | |
| LZ4TU-5 | 2026-09-05 00:22:19 | 44.58789 | 20.72067 | 163° | 16km/h | 23372m | 6.1m/s | -53.9°C | 0.3% | 0hPa | 5.5V | 00:00:00 | 00:00:00 | 00:00:00 | |
| OE3JTB-15 | 2026-09-05 00:22:18 | 44.58792 | 20.72065 | 168° | 15km/h | 23367m | 6.0m/s | -53.2°C | 0% | 0hPa | 5.5V | 00:00:00 | 00:00:00 | 00:00:00 | |
| OM5KV | 2026-09-05 00:22:17 | 44.58797 | 20.72064 | 163° | 15km/h | 23361m | 5.7m/s | -53.9°C | 0.3% | 0hPa | 5.5V | 00:00:00 | 00:00:00 | 00:00:00 | |
| LZ4TU-5 | 2026-09-05 00:22:14 | 44.58803 | 20.72058 | 152° | 5km/h | 23345m | 5.4m/s | -53.9°C | 0.3% | 0hPa | 5.5V | 00:00:00 | 00:00:00 | 00:00:00 | |
| OM5KV | 2026-09-05 00:22:11 | 44.58804 | 20.72065 | 290° | 11km/h | 23328m | 4.0m/s | -53.9°C | 0.3% | 0hPa | 5.5V | 00:00:00 | 00:00:00 | 00:00:00 | |
| OM5KV | 2026-09-05 00:22:05 | 44.58809 | 20.72039 | 119° | 18km/h | 23292m | 4.1m/s | -54.0°C | 0.3% | 0hPa | 5.5V | 00:00:00 | 00:00:00 | 00:00:00 | |
| OM5KV | 2026-09-05 00:22:00 | 44.58809 | 20.72021 | 31° | 13km/h | 23264m | 4.8m/s | -54.0°C | 0.3% | 0hPa | 5.5V | 00:00:00 | 00:00:00 | 00:00:00 | |
| OM5KV | 2026-09-05 00:21:54 | 44.58793 | 20.72002 | 78° | 26km/h | 23228m | 6.0m/s | -54.0°C | 0.3% | 0hPa | 5.5V | 00:00:00 | 00:00:00 | 00:00:00 | |
| OM5KV | 2026-09-05 00:21:48 | 44.58794 | 20.71981 | 8° | 4km/h | 23196m | 5.5m/s | -54.0°C | 0.3% | 0hPa | 5.5V | 00:00:00 | 00:00:00 | 00:00:00 | |
| OM5KV | 2026-09-05 00:21:40 | 44.58775 | 20.71953 | 76° | 13km/h | 23147m | 4.8m/s | -54.1°C | 0.3% | 0hPa | 5.5V | 00:00:00 | 00:00:00 | 00:00:00 | |
| OM5KV | 2026-09-05 00:21:34 | 44.58754 | 20.71935 | 21° | 33km/h | 23108m | 5.1m/s | -54.1°C | 0.3% | 0hPa | 5.5V | 00:00:00 | 00:00:00 | 00:00:00 | |
| OM5KV | 2026-09-05 00:21:24 | 44.58720 | 20.71899 | 13° | 20km/h | 23048m | 6.1m/s | -53.9°C | 0.3% | 0hPa | 5.5V | 00:00:00 | 00:00:00 | 00:00:00 | |
| OM5KV | 2026-09-05 00:21:18 | 44.58690 | 20.71897 | 321° | 15km/h | 23011m | 5.7m/s | -54.1°C | 0.3% | 0hPa | 5.5V | 00:00:00 | 00:00:00 | 00:00:00 | |
| OE3JTB-15 | 2026-09-05 00:21:04 | 44.58650 | 20.71897 | 346° | 7km/h | 22925m | 8.0m/s | -53.5°C | 0% | 0hPa | 5.5V | 00:00:00 | 00:00:00 | 00:00:00 | |
| OM5KV | 2026-09-05 00:20:56 | 44.58633 | 20.71892 | 314° | 11km/h | 22875m | 4.4m/s | -54.4°C | 0.3% | 0hPa | 5.5V | 00:00:00 | 00:00:00 | 00:00:00 | |
| OM5KV | 2026-09-05 00:20:50 | 44.58631 | 20.71892 | 12° | 7km/h | 22837m | 5.5m/s | -54.5°C | 0.3% | 0hPa | 5.5V | 00:00:00 | 00:00:00 | 00:00:00 | |
| OM5KV | 2026-09-05 00:20:44 | 44.58624 | 20.71915 | 295° | 15km/h | 22799m | 4.7m/s | -54.4°C | 0.3% | 0hPa | 5.5V | 00:00:00 | 00:00:00 | 00:00:00 | |
| OE3JTB-15 | 2026-09-05 00:20:35 | 44.58630 | 20.71939 | 238° | 9km/h | 22741m | 6.4m/s | -53.8°C | 0% | 0hPa | 5.5V | 00:00:00 | 00:00:00 | 00:00:00 | |
| GYPAP8-17 | 2026-09-05 00:20:34 | 44.58630 | 20.71941 | 250° | 7km/h | 22735m | 6.1m/s | -54.6°C | 0.3% | 0hPa | 5.5V | 00:00:00 | 00:00:00 | 00:00:00 | |
| LZ4TU-5 | 2026-09-05 00:20:33 | 44.58632 | 20.71944 | 237° | 15km/h | 22729m | 5.9m/s | -54.6°C | 0.3% | 0hPa | 5.5V | 00:00:00 | 00:00:00 | 00:00:00 | |
| OM5KV | 2026-09-05 00:20:32 | 44.58634 | 20.71949 | 224° | 18km/h | 22723m | 6.8m/s | -54.7°C | 0.3% | 0hPa | 5.5V | 00:00:00 | 00:00:00 | 00:00:00 | |
| OM5KV | 2026-09-05 00:20:28 | 44.58648 | 20.71965 | 279° | 13km/h | 22693m | 5.9m/s | -54.9°C | 0.3% | 0hPa | 5.5V | 00:00:00 | 00:00:00 | 00:00:00 | |
| OM5KV | 2026-09-05 00:20:21 | 44.58644 | 20.71976 | 237° | 7km/h | 22655m | 4.2m/s | -55.0°C | 0.4% | 0hPa | 5.5V | 00:00:00 | 00:00:00 | 00:00:00 | |
| OM5KV | 2026-09-05 00:20:10 | 44.58650 | 20.71974 | 149° | 20km/h | 22588m | 7.3m/s | -54.9°C | 0.3% | 0hPa | 5.5V | 00:00:00 | 00:00:00 | 00:00:00 | |
| OE3JTB-15 | 2026-09-05 00:20:04 | 44.58673 | 20.71968 | 97° | 15km/h | 22549m | 5.2m/s | -54.3°C | 0% | 0hPa | 5.5V | 00:00:00 | 00:00:00 | 00:00:00 | |
| OE3JTB-15 | 2026-09-05 00:19:35 | 44.58724 | 20.71840 | 83° | 18km/h | 22373m | 6.2m/s | -54.8°C | 0% | 0hPa | 5.5V | 00:00:00 | 00:00:00 | 00:00:00 | |
| OE3JTB-15 | 2026-09-05 00:19:06 | 44.58648 | 20.71695 | 49° | 13km/h | 22190m | 5.0m/s | -54.6°C | 0% | 0hPa | 5.6V | 00:00:00 | 00:00:00 | 00:00:00 | |
| LZ4TU-5 | 2026-09-05 00:18:47 | 44.58603 | 20.71653 | 20° | 11km/h | 22068m | 7.1m/s | -55.2°C | 0.5% | 0hPa | 5.6V | 00:00:00 | 00:00:00 | 00:00:00 | |
| OE3JTB-15 | 2026-09-05 00:18:37 | 44.58575 | 20.71636 | 50° | 15km/h | 22006m | 5.8m/s | -54.4°C | 0% | 0hPa | 5.6V | 00:00:00 | 00:00:00 | 00:00:00 | |
| OE3JTB-15 | 2026-09-05 00:18:06 | 44.58462 | 20.71597 | 23° | 16km/h | 21819m | 6.1m/s | -54.6°C | 0% | 0hPa | 5.6V | 00:00:00 | 00:00:00 | 00:00:00 | |
| GYPAP8-17 | 2026-09-05 00:18:01 | 44.58456 | 20.71603 | 315° | 24km/h | 21790m | 7.5m/s | -55.4°C | 0.5% | 0hPa | 5.6V | 00:00:00 | 00:00:00 | 00:00:00 | |
| OE3JTB-15 | 2026-09-05 00:17:36 | 44.58406 | 20.71691 | 319° | 16km/h | 21651m | 4.8m/s | -54.6°C | 0% | 0hPa | 5.6V | 00:00:00 | 00:00:00 | 00:00:00 | |
| OE3JTB-15 | 2026-09-05 00:17:07 | 44.58381 | 20.71719 | 175° | 13km/h | 21483m | 5.8m/s | -55.1°C | 0% | 0hPa | 5.6V | 00:00:00 | 00:00:00 | 00:00:00 | |
| LZ4TU-5 | 2026-09-05 00:16:53 | 44.58358 | 20.71714 | 302° | 11km/h | 21402m | 6.0m/s | -55.9°C | 0.7% | 0hPa | 5.6V | 00:00:00 | 00:00:00 | 00:00:00 | |
| LZ4TU-5 | 2026-09-05 00:16:50 | 44.58335 | 20.71723 | 12° | 29km/h | 21379m | 5.0m/s | -55.9°C | 0.7% | 0hPa | 5.6V | 00:00:00 | 00:00:00 | 00:00:00 | |
| OE3JTB-15 | 2026-09-05 00:16:38 | 44.58319 | 20.71719 | 3° | 11km/h | 21314m | 6.3m/s | -54.9°C | 0% | 0hPa | 5.6V | 00:00:00 | 00:00:00 | 00:00:00 | |
| OE3JTB-15 | 2026-09-05 00:16:07 | 44.58327 | 20.71760 | 148° | 11km/h | 21135m | 5.0m/s | -54.9°C | 0% | 0hPa | 5.6V | 00:00:00 | 00:00:00 | 00:00:00 | |
| OE3JTB-15 | 2026-09-05 00:15:35 | 44.58383 | 20.71743 | 170° | 13km/h | 20943m | 6.1m/s | -55.4°C | 0% | 0hPa | 5.6V | 00:00:00 | 00:00:00 | 00:00:00 | |
| OE3JTB-15 | 2026-09-05 00:15:04 | 44.58454 | 20.71654 | 149° | 27km/h | 20755m | 5.2m/s | -56.0°C | 0% | 0hPa | 5.6V | 00:00:00 | 00:00:00 | 00:00:00 | |
| LZ4TU-5 | 2026-09-05 00:14:45 | 44.58556 | 20.71556 | 126° | 35km/h | 20636m | 7.6m/s | -57.3°C | 0.5% | 0hPa | 5.6V | 00:00:00 | 00:00:00 | 00:00:00 | |
| LZ4TU-5 | 2026-09-05 00:14:40 | 44.58588 | 20.71506 | 137° | 26km/h | 20607m | 5.4m/s | -57.3°C | 0.5% | 0hPa | 5.6V | 00:00:00 | 00:00:00 | 00:00:00 | |
| OE3JTB-15 | 2026-09-05 00:14:33 | 44.58601 | 20.71447 | 105° | 27km/h | 20565m | 7.7m/s | -57.1°C | 0% | 0hPa | 5.6V | 00:00:00 | 00:00:00 | 00:00:00 | |
| OE3JTB-15 | 2026-09-05 00:14:04 | 44.58668 | 20.71196 | 94° | 18km/h | 20391m | 8.2m/s | -57.2°C | 0% | 0hPa | 5.6V | 00:00:00 | 00:00:00 | 00:00:00 | |
| OE3JTB-15 | 2026-09-05 00:13:29 | 44.58697 | 20.70949 | 96° | 15km/h | 20186m | 5.4m/s | -56.1°C | 0% | 0hPa | 5.6V | 00:00:00 | 00:00:00 | 00:00:00 | |
| OE3JTB-15 | 2026-09-05 00:12:59 | 44.58749 | 20.70817 | 125° | 16km/h | 20005m | 6.2m/s | -55.2°C | 0% | 0hPa | 5.6V | 00:00:00 | 00:00:00 | 00:00:00 | |
| LZ4TU-5 | 2026-09-05 00:12:53 | 44.58762 | 20.70782 | 101° | 11km/h | 19972m | 5.9m/s | -55.8°C | 1.0% | 0hPa | 5.6V | 00:00:00 | 00:00:00 | 00:00:00 | |
| LZ4TU-5 | 2026-09-05 00:12:48 | 44.58768 | 20.70757 | 125° | 18km/h | 19945m | 6.1m/s | -55.8°C | 1.0% | 0hPa | 5.6V | 00:00:00 | 00:00:00 | 00:00:00 | |
| OE3JTB-15 | 2026-09-05 00:12:01 | 44.58730 | 20.70475 | 90° | 20km/h | 19680m | 5.1m/s | -56.1°C | 0% | 0hPa | 5.6V | 00:00:00 | 00:00:00 | 00:00:00 | |
| OE3JTB-15 | 2026-09-05 00:11:30 | 44.58698 | 20.70266 | 69° | 29km/h | 19509m | 5.0m/s | -55.4°C | 0% | 0hPa | 5.6V | 00:00:00 | 00:00:00 | 00:00:00 | |
| LZ4TU-5 | 2026-09-05 00:11:08 | 44.58601 | 20.70077 | 59° | 38km/h | 19382m | 5.6m/s | -56.2°C | 1.5% | 0hPa | 0V | 00:00:00 | 00:00:00 | 00:00:00 | |
| LZ4TU-5 | 2026-09-05 00:11:04 | 44.58579 | 20.70032 | 52° | 37km/h | 19359m | 6.1m/s | -56.3°C | 1.5% | 0hPa | 0V | 00:00:00 | 00:00:00 | 00:00:00 | |
| LZ4TU-5 | 2026-09-05 00:09:24 | 44.58331 | 20.69147 | 79° | 35km/h | 18798m | 6.5m/s | -58.1°C | 1.9% | 0hPa | 0V | 00:00:00 | 00:00:00 | 00:00:00 | |
| LZ4TU-5 | 2026-09-05 00:09:20 | 44.58324 | 20.69114 | 90° | 13km/h | 18776m | 5.2m/s | -58.2°C | 1.9% | 0hPa | 0V | 00:00:00 | 00:00:00 | 00:00:00 | |
| LZ4TU-5 | 2026-09-05 00:07:42 | 44.58290 | 20.68568 | 54° | 15km/h | 18218m | 6.1m/s | -58.8°C | 2.5% | 0hPa | 0V | 00:00:00 | 00:00:00 | 00:00:00 | |
| LZ4TU-5 | 2026-09-05 00:07:37 | 44.58274 | 20.68543 | 50° | 22km/h | 18190m | 6.0m/s | -58.8°C | 2.5% | 0hPa | 0V | 00:00:00 | 00:00:00 | 00:00:00 | |
| LZ4TU-5 | 2026-09-05 00:05:55 | 44.58229 | 20.67584 | 54° | 24km/h | 17640m | 4.7m/s | -60.6°C | 3.1% | 0hPa | 0V | 00:00:00 | 00:00:00 | 00:00:00 | |
| LZ4TU-5 | 2026-09-05 00:05:51 | 44.58216 | 20.67542 | 72° | 38km/h | 17618m | 5.7m/s | -60.6°C | 3.2% | 0hPa | 0V | 00:00:00 | 00:00:00 | 00:00:00 | |
| LZ4TU-5 | 2026-09-05 00:04:09 | 44.57984 | 20.66866 | 64° | 9km/h | 17050m | 5.2m/s | -60.0°C | 3.5% | 0hPa | 0V | 00:00:00 | 00:00:00 | 00:00:00 | |
| LZ4TU-5 | 2026-09-05 00:04:04 | 44.57979 | 20.66842 | 80° | 18km/h | 17023m | 4.9m/s | -59.8°C | 3.6% | 0hPa | 0V | 00:00:00 | 00:00:00 | 00:00:00 | |
| LZ4TU-5 | 2026-09-05 00:02:20 | 44.58140 | 20.66092 | 139° | 35km/h | 16471m | 3.8m/s | -59.7°C | 4.9% | 0hPa | 0V | 00:00:00 | 00:00:00 | 00:00:00 | |
| LZ4TU-5 | 2026-09-05 00:02:16 | 44.58161 | 20.66045 | 112° | 33km/h | 16447m | 4.1m/s | -59.7°C | 5.0% | 0hPa | 0V | 00:00:00 | 00:00:00 | 00:00:00 | |
| LZ4TU-5 | 2026-09-05 00:00:26 | 44.58520 | 20.64841 | 122° | 49km/h | 15889m | 5.1m/s | -59.4°C | 7.7% | 0hPa | 0V | 00:00:00 | 00:00:00 | 00:00:00 | |
| LZ4TU-5 | 2026-09-04 23:58:39 | 44.58875 | 20.63443 | 124° | 51km/h | 15354m | 6.1m/s | -61.4°C | 12.4% | 0hPa | 0V | 00:00:00 | 00:00:00 | 00:00:00 | |
| LZ4TU-5 | 2026-09-04 23:58:34 | 44.58912 | 20.63374 | 125° | 37km/h | 15331m | 5.7m/s | -61.4°C | 12.7% | 0hPa | 0V | 00:00:00 | 00:00:00 | 00:00:00 | |
| LZ4TU-5 | 2026-09-04 23:56:54 | 44.59335 | 20.62253 | 108° | 9km/h | 14814m | 5.2m/s | -62.5°C | 21.5% | 0hPa | 0V | 00:00:00 | 00:00:00 | 00:00:00 | |
| LZ4TU-5 | 2026-09-04 23:55:13 | 44.59924 | 20.61746 | 149° | 51km/h | 14227m | 6.5m/s | -64.3°C | 35.0% | 0hPa | 0V | 00:00:00 | 00:00:00 | 00:00:00 | |
| LZ4TU-5 | 2026-09-04 23:55:09 | 44.59953 | 20.61697 | 128° | 42km/h | 14201m | 5.1m/s | -65.2°C | 35.8% | 0hPa | 0V | 00:00:00 | 00:00:00 | 00:00:00 | |
| LZ4TU-5 | 2026-09-04 23:53:30 | 44.61140 | 20.60618 | 143° | 64km/h | 13641m | 5.8m/s | -66.3°C | 37.4% | 0hPa | 0V | 00:00:00 | 00:00:00 | 00:00:00 | |
| LZ4TU-5 | 2026-09-04 23:53:25 | 44.61190 | 20.60560 | 139° | 58km/h | 13622m | 4.5m/s | -66.3°C | 37.3% | 0hPa | 0V | 00:00:00 | 00:00:00 | 00:00:00 | |
| LZ4TU-5 | 2026-09-04 23:51:43 | 44.62436 | 20.59239 | 122° | 55km/h | 13016m | 5.4m/s | -62.9°C | 34.7% | 0hPa | 0V | 00:00:00 | 00:00:00 | 00:00:00 | |
| LZ4TU-5 | 2026-09-04 23:51:38 | 44.62493 | 20.59176 | 156° | 69km/h | 12984m | 7.2m/s | -62.6°C | 34.6% | 0hPa | 0V | 00:00:00 | 00:00:00 | 00:00:00 | |
| LZ4TU-5 | 2026-09-04 23:49:59 | 44.63568 | 20.57786 | 157° | 62km/h | 12423m | 3.4m/s | -58.5°C | 32.7% | 0hPa | 0V | 00:00:00 | 00:00:00 | 00:00:00 | |
| LZ4TU-5 | 2026-09-04 23:49:54 | 44.63630 | 20.57722 | 127° | 57km/h | 12399m | 4.8m/s | -58.3°C | 0% | 0hPa | 0V | 00:00:00 | 00:00:00 | 00:00:00 | |
| LZ4TU-5 | 2026-09-04 23:48:13 | 44.64604 | 20.56436 | 142° | 47km/h | 11841m | 5.9m/s | -54.0°C | 32.9% | 0hPa | 0V | 00:00:00 | 00:00:00 | 00:00:00 | |
| LZ4TU-5 | 2026-09-04 23:48:08 | 44.64651 | 20.56372 | 140° | 55km/h | 11817m | 4.9m/s | -53.8°C | 33.0% | 0hPa | 0V | 00:00:00 | 00:00:00 | 00:00:00 | |
| LZ4TU-5 | 2026-09-04 23:46:24 | 44.65720 | 20.55193 | 134° | 51km/h | 11236m | 5.1m/s | -48.9°C | 30.4% | 0hPa | 0V | 00:00:00 | 00:00:00 | 00:00:00 | |
| LZ4TU-5 | 2026-09-04 23:46:19 | 44.65776 | 20.55127 | 141° | 64km/h | 11204m | 6.3m/s | -48.8°C | 30.6% | 0hPa | 0V | 00:00:00 | 00:00:00 | 00:00:00 | |
| LZ4TU-5 | 2026-09-04 23:44:39 | 44.66703 | 20.53846 | 129° | 51km/h | 10643m | 5.9m/s | -43.8°C | 15.7% | 0hPa | 0V | 00:00:00 | 00:00:00 | 00:00:00 | |
| LZ4TU-5 | 2026-09-04 23:44:34 | 44.66734 | 20.53769 | 131° | 37km/h | 10615m | 5.9m/s | -43.6°C | 15.4% | 0hPa | 0V | 00:00:00 | 00:00:00 | 00:00:00 | |
| LZ4TU-5 | 2026-09-04 23:42:41 | 44.67586 | 20.52197 | 119° | 53km/h | 9971m | 6.2m/s | -37.8°C | 11.4% | 0hPa | 0V | 00:00:00 | 00:00:00 | 00:00:00 | |
| LZ4TU-5 | 2026-09-04 23:42:36 | 44.67613 | 20.52149 | 117° | 24km/h | 9943m | 3.2m/s | -37.6°C | 11.4% | 0hPa | 0V | 00:00:00 | 00:00:00 | 00:00:00 | |
| LZ4TU-5 | 2026-09-04 23:41:15 | 44.68100 | 20.50996 | 144° | 35km/h | 9471m | 7.7m/s | -33.9°C | 12.4% | 0hPa | 0V | 00:00:00 | 00:00:00 | 00:00:00 | |
| LZ4TU-5 | 2026-09-04 23:39:47 | 44.68711 | 20.49606 | 112° | 51km/h | 8950m | 7.4m/s | -30.7°C | 16.8% | 0hPa | 0V | 00:00:00 | 00:00:00 | 00:00:00 | |
| LZ4TU-5 | 2026-09-04 23:39:42 | 44.68752 | 20.49522 | 127° | 68km/h | 8917m | 5.1m/s | -30.6°C | 17.4% | 0hPa | 0V | 00:00:00 | 00:00:00 | 00:00:00 | |
| LZ4TU-5 | 2026-09-04 23:38:28 | 44.69366 | 20.48362 | 126° | 60km/h | 8484m | 6.7m/s | -27.1°C | 13.5% | 0hPa | 0V | 00:00:00 | 00:00:00 | 00:00:00 | |
| LZ4TU-5 | 2026-09-04 23:38:22 | 44.69399 | 20.48279 | 134° | 44km/h | 8456m | 5.1m/s | -26.9°C | 14.0% | 0hPa | 0V | 00:00:00 | 00:00:00 | 00:00:00 | |
| LZ4TU-5 | 2026-09-04 23:37:06 | 44.69922 | 20.47210 | 135° | 33km/h | 8032m | 3.2m/s | -23.7°C | 16.9% | 0hPa | 0V | 00:00:00 | 00:00:00 | 00:00:00 | |
| LZ4TU-5 | 2026-09-04 23:37:01 | 44.69963 | 20.47138 | 136° | 44km/h | 8011m | 2.7m/s | -23.5°C | 17.3% | 0hPa | 0V | 00:00:00 | 00:00:00 | 00:00:00 | |
| LZ4TU-5 | 2026-09-04 23:35:43 | 44.70349 | 20.46470 | 150° | 40km/h | 7586m | 3.9m/s | -20.4°C | 16.4% | 0hPa | 0V | 00:00:00 | 00:00:00 | 00:00:00 | |
| LZ4TU-5 | 2026-09-04 23:35:39 | 44.70366 | 20.46441 | 112° | 22km/h | 7565m | 5.4m/s | -20.3°C | 16.1% | 0hPa | 0V | 00:00:00 | 00:00:00 | 00:00:00 | |
| LZ4TU-5 | 2026-09-04 23:34:23 | 44.70667 | 20.45937 | 197° | 24km/h | 7152m | 6.9m/s | -16.5°C | 16.7% | 0hPa | 0V | 00:00:00 | 00:00:00 | 00:00:00 | |
| LZ4TU-5 | 2026-09-04 23:34:18 | 44.70680 | 20.45930 | 109° | 37km/h | 7128m | 6.5m/s | -16.3°C | 16.4% | 0hPa | 0V | 00:00:00 | 00:00:00 | 00:00:00 | |
| LZ4TU-5 | 2026-09-04 23:32:58 | 44.70951 | 20.45369 | 143° | 16km/h | 6668m | 5.0m/s | -13.2°C | 13.9% | 0hPa | 0V | 00:00:00 | 00:00:00 | 00:00:00 | |
| LZ4TU-5 | 2026-09-04 23:32:53 | 44.70985 | 20.45345 | 148° | 46km/h | 6646m | 4.1m/s | -13.1°C | 0% | 0hPa | 0V | 00:00:00 | 00:00:00 | 00:00:00 | |
| LZ4TU-5 | 2026-09-04 23:31:36 | 44.71590 | 20.45018 | 146° | 29km/h | 6229m | 7.4m/s | -11.5°C | 21.1% | 0hPa | 0V | 00:00:00 | 00:00:00 | 00:00:00 | |
| LZ4TU-5 | 2026-09-04 23:31:31 | 44.71632 | 20.44996 | 177° | 26km/h | 6200m | 4.7m/s | -11.4°C | 21.8% | 0hPa | 0V | 00:00:00 | 00:00:00 | 00:00:00 |